sensor_id;sensor_type;location;lat;lon;timestamp;temperature;humidity
51922;DHT22;37948;53.260;6.394;2023-02-28T00:00:46;4.30;99.90
51922;DHT22;37948;53.260;6.394;2023-02-28T00:03:12;4.40;99.90
51922;DHT22;37948;53.260;6.394;2023-02-28T00:05:38;4.30;99.90
51922;DHT22;37948;53.260;6.394;2023-02-28T00:08:03;4.30;99.90
51922;DHT22;37948;53.260;6.394;2023-02-28T00:10:31;4.40;99.90
51922;DHT22;37948;53.260;6.394;2023-02-28T00:13:03;4.30;99.90
51922;DHT22;37948;53.260;6.394;2023-02-28T00:15:29;4.30;99.90
51922;DHT22;37948;53.260;6.394;2023-02-28T00:17:55;4.30;99.90
51922;DHT22;37948;53.260;6.394;2023-02-28T00:20:21;4.30;99.90
51922;DHT22;37948;53.260;6.394;2023-02-28T00:22:49;4.30;99.90
51922;DHT22;37948;53.260;6.394;2023-02-28T00:25:18;4.30;99.90
51922;DHT22;37948;53.260;6.394;2023-02-28T00:27:44;4.30;99.90
51922;DHT22;37948;53.260;6.394;2023-02-28T00:30:13;4.30;99.90
51922;DHT22;37948;53.260;6.394;2023-02-28T00:32:40;4.30;99.90
51922;DHT22;37948;53.260;6.394;2023-02-28T00:35:09;4.30;99.90
51922;DHT22;37948;53.260;6.394;2023-02-28T00:37:35;4.30;99.90
51922;DHT22;37948;53.260;6.394;2023-02-28T00:40:01;4.20;99.90
51922;DHT22;37948;53.260;6.394;2023-02-28T00:42:29;4.10;99.90
51922;DHT22;37948;53.260;6.394;2023-02-28T00:44:55;4.10;99.90
51922;DHT22;37948;53.260;6.394;2023-02-28T00:47:21;4.10;99.90
51922;DHT22;37948;53.260;6.394;2023-02-28T00:49:46;4.10;99.90
51922;DHT22;37948;53.260;6.394;2023-02-28T00:52:12;4.20;99.90
51922;DHT22;37948;53.260;6.394;2023-02-28T00:54:38;4.20;99.90
51922;DHT22;37948;53.260;6.394;2023-02-28T00:57:03;4.20;99.90
51922;DHT22;37948;53.260;6.394;2023-02-28T00:59:29;4.10;99.90
51922;DHT22;37948;53.260;6.394;2023-02-28T01:01:54;4.10;99.90
51922;DHT22;37948;53.260;6.394;2023-02-28T01:04:20;4.10;99.90
51922;DHT22;37948;53.260;6.394;2023-02-28T01:06:46;4.10;99.90
51922;DHT22;37948;53.260;6.394;2023-02-28T01:09:11;4.10;99.90
51922;DHT22;37948;53.260;6.394;2023-02-28T01:11:37;4.10;99.90
51922;DHT22;37948;53.260;6.394;2023-02-28T01:14:04;4.10;99.90
51922;DHT22;37948;53.260;6.394;2023-02-28T01:16:30;4.10;99.90
51922;DHT22;37948;53.260;6.394;2023-02-28T01:18:56;4.10;99.90
51922;DHT22;37948;53.260;6.394;2023-02-28T01:21:22;4.10;99.90
51922;DHT22;37948;53.260;6.394;2023-02-28T01:23:49;4.10;99.90
51922;DHT22;37948;53.260;6.394;2023-02-28T01:26:21;4.00;99.90
51922;DHT22;37948;53.260;6.394;2023-02-28T01:28:47;4.00;99.90
51922;DHT22;37948;53.260;6.394;2023-02-28T01:31:13;4.00;99.90
51922;DHT22;37948;53.260;6.394;2023-02-28T01:33:39;4.00;99.90
51922;DHT22;37948;53.260;6.394;2023-02-28T01:36:09;4.00;99.90
51922;DHT22;37948;53.260;6.394;2023-02-28T01:38:35;4.00;99.90
51922;DHT22;37948;53.260;6.394;2023-02-28T01:41:00;4.00;99.90
51922;DHT22;37948;53.260;6.394;2023-02-28T01:43:28;4.00;99.90
51922;DHT22;37948;53.260;6.394;2023-02-28T01:45:56;4.00;99.90
51922;DHT22;37948;53.260;6.394;2023-02-28T01:48:32;4.00;99.90
51922;DHT22;37948;53.260;6.394;2023-02-28T01:51:02;4.00;99.90
51922;DHT22;37948;53.260;6.394;2023-02-28T01:53:36;4.00;99.90
51922;DHT22;37948;53.260;6.394;2023-02-28T01:56:05;4.00;99.90
51922;DHT22;37948;53.260;6.394;2023-02-28T01:58:32;4.10;99.90
51922;DHT22;37948;53.260;6.394;2023-02-28T02:00:58;4.10;99.90
51922;DHT22;37948;53.260;6.394;2023-02-28T02:03:24;4.10;99.90
51922;DHT22;37948;53.260;6.394;2023-02-28T02:05:49;4.10;99.90
51922;DHT22;37948;53.260;6.394;2023-02-28T02:08:20;4.10;99.90
51922;DHT22;37948;53.260;6.394;2023-02-28T02:10:58;4.10;99.90
51922;DHT22;37948;53.260;6.394;2023-02-28T02:18:51;4.10;99.90
51922;DHT22;37948;53.260;6.394;2023-02-28T02:27:29;4.00;99.90
51922;DHT22;37948;53.260;6.394;2023-02-28T02:40:20;4.10;99.90
51922;DHT22;37948;53.260;6.394;2023-02-28T02:42:56;4.10;99.90
51922;DHT22;37948;53.260;6.394;2023-02-28T02:48:19;4.10;99.90
51922;DHT22;37948;53.260;6.394;2023-02-28T02:50:49;4.20;99.90
51922;DHT22;37948;53.260;6.394;2023-02-28T02:53:18;4.20;99.90
51922;DHT22;37948;53.260;6.394;2023-02-28T02:55:47;4.20;99.90
51922;DHT22;37948;53.260;6.394;2023-02-28T02:58:18;4.20;99.90
51922;DHT22;37948;53.260;6.394;2023-02-28T03:00:48;4.20;99.90
51922;DHT22;37948;53.260;6.394;2023-02-28T03:03:17;4.20;99.90
51922;DHT22;37948;53.260;6.394;2023-02-28T03:05:48;4.20;99.90
51922;DHT22;37948;53.260;6.394;2023-02-28T03:08:15;4.20;99.90
51922;DHT22;37948;53.260;6.394;2023-02-28T03:10:43;4.30;99.90
51922;DHT22;37948;53.260;6.394;2023-02-28T03:24:11;4.30;99.90
51922;DHT22;37948;53.260;6.394;2023-02-28T03:26:45;4.30;99.90
51922;DHT22;37948;53.260;6.394;2023-02-28T03:29:29;4.30;99.90
51922;DHT22;37948;53.260;6.394;2023-02-28T03:32:18;4.30;99.90
51922;DHT22;37948;53.260;6.394;2023-02-28T03:37:35;4.30;99.90
51922;DHT22;37948;53.260;6.394;2023-02-28T03:40:14;4.30;99.90
51922;DHT22;37948;53.260;6.394;2023-02-28T03:42:45;4.40;99.90
51922;DHT22;37948;53.260;6.394;2023-02-28T03:45:21;4.40;99.90
51922;DHT22;37948;53.260;6.394;2023-02-28T03:47:57;4.40;99.90
51922;DHT22;37948;53.260;6.394;2023-02-28T03:50:29;4.40;99.90
51922;DHT22;37948;53.260;6.394;2023-02-28T03:56:15;4.40;99.90
51922;DHT22;37948;53.260;6.394;2023-02-28T04:01:37;4.40;99.90
51922;DHT22;37948;53.260;6.394;2023-02-28T04:04:07;4.40;99.90
51922;DHT22;37948;53.260;6.394;2023-02-28T04:06:34;4.50;99.90
51922;DHT22;37948;53.260;6.394;2023-02-28T04:09:00;4.40;99.90
51922;DHT22;37948;53.260;6.394;2023-02-28T04:13:54;4.50;99.90
51922;DHT22;37948;53.260;6.394;2023-02-28T04:16:21;4.50;99.90
51922;DHT22;37948;53.260;6.394;2023-02-28T04:18:47;4.50;99.90
51922;DHT22;37948;53.260;6.394;2023-02-28T04:21:13;4.50;99.90
51922;DHT22;37948;53.260;6.394;2023-02-28T04:23:38;4.50;99.90
51922;DHT22;37948;53.260;6.394;2023-02-28T04:26:04;4.50;99.90
51922;DHT22;37948;53.260;6.394;2023-02-28T04:28:31;4.50;99.90
51922;DHT22;37948;53.260;6.394;2023-02-28T04:31:02;4.50;99.90
51922;DHT22;37948;53.260;6.394;2023-02-28T04:33:29;4.50;99.90
51922;DHT22;37948;53.260;6.394;2023-02-28T04:36:03;4.50;99.90
51922;DHT22;37948;53.260;6.394;2023-02-28T04:38:32;4.50;99.90
51922;DHT22;37948;53.260;6.394;2023-02-28T04:40:58;4.50;99.90
51922;DHT22;37948;53.260;6.394;2023-02-28T04:43:26;4.50;99.90
51922;DHT22;37948;53.260;6.394;2023-02-28T04:45:52;4.50;99.90
51922;DHT22;37948;53.260;6.394;2023-02-28T04:48:17;4.50;99.90
51922;DHT22;37948;53.260;6.394;2023-02-28T04:50:43;4.50;99.90
51922;DHT22;37948;53.260;6.394;2023-02-28T04:53:08;4.40;99.90
51922;DHT22;37948;53.260;6.394;2023-02-28T04:55:34;4.40;99.90
51922;DHT22;37948;53.260;6.394;2023-02-28T04:58:00;4.40;99.90
51922;DHT22;37948;53.260;6.394;2023-02-28T05:00:26;4.40;99.90
51922;DHT22;37948;53.260;6.394;2023-02-28T05:02:51;4.30;99.90
51922;DHT22;37948;53.260;6.394;2023-02-28T05:05:17;4.30;99.90
51922;DHT22;37948;53.260;6.394;2023-02-28T05:07:44;4.30;99.90
51922;DHT22;37948;53.260;6.394;2023-02-28T05:10:10;4.30;99.90
51922;DHT22;37948;53.260;6.394;2023-02-28T05:12:36;4.20;99.90
51922;DHT22;37948;53.260;6.394;2023-02-28T05:15:02;4.30;99.90
51922;DHT22;37948;53.260;6.394;2023-02-28T05:17:30;4.20;99.90
51922;DHT22;37948;53.260;6.394;2023-02-28T05:19:56;4.20;99.90
51922;DHT22;37948;53.260;6.394;2023-02-28T05:22:22;4.20;99.90
51922;DHT22;37948;53.260;6.394;2023-02-28T05:24:47;4.20;99.90
51922;DHT22;37948;53.260;6.394;2023-02-28T05:27:13;4.20;99.90
51922;DHT22;37948;53.260;6.394;2023-02-28T05:29:39;4.20;99.90
51922;DHT22;37948;53.260;6.394;2023-02-28T05:32:11;4.20;99.90
51922;DHT22;37948;53.260;6.394;2023-02-28T05:34:38;4.10;99.90
51922;DHT22;37948;53.260;6.394;2023-02-28T05:37:05;4.10;99.90
51922;DHT22;37948;53.260;6.394;2023-02-28T05:39:31;4.10;99.90
51922;DHT22;37948;53.260;6.394;2023-02-28T05:41:56;4.10;99.90
51922;DHT22;37948;53.260;6.394;2023-02-28T05:44:22;4.10;99.90
51922;DHT22;37948;53.260;6.394;2023-02-28T05:46:48;4.10;99.90
51922;DHT22;37948;53.260;6.394;2023-02-28T05:49:13;4.00;99.90
51922;DHT22;37948;53.260;6.394;2023-02-28T05:51:39;4.00;99.90
51922;DHT22;37948;53.260;6.394;2023-02-28T05:54:05;4.00;99.90
51922;DHT22;37948;53.260;6.394;2023-02-28T05:56:32;4.00;99.90
51922;DHT22;37948;53.260;6.394;2023-02-28T05:59:00;3.90;99.90
51922;DHT22;37948;53.260;6.394;2023-02-28T06:01:39;3.90;99.90
51922;DHT22;37948;53.260;6.394;2023-02-28T06:04:08;3.90;99.90
51922;DHT22;37948;53.260;6.394;2023-02-28T06:06:34;3.80;99.90
51922;DHT22;37948;53.260;6.394;2023-02-28T06:09:00;3.80;99.90
51922;DHT22;37948;53.260;6.394;2023-02-28T06:11:26;3.80;99.90
51922;DHT22;37948;53.260;6.394;2023-02-28T06:13:57;3.80;99.90
51922;DHT22;37948;53.260;6.394;2023-02-28T06:16:26;3.80;99.90
51922;DHT22;37948;53.260;6.394;2023-02-28T06:18:52;3.80;99.90
51922;DHT22;37948;53.260;6.394;2023-02-28T06:21:18;3.80;99.90
51922;DHT22;37948;53.260;6.394;2023-02-28T06:23:44;3.70;99.90
51922;DHT22;37948;53.260;6.394;2023-02-28T06:26:10;3.70;99.90
51922;DHT22;37948;53.260;6.394;2023-02-28T06:28:36;3.70;99.90
51922;DHT22;37948;53.260;6.394;2023-02-28T06:31:13;3.70;99.90
51922;DHT22;37948;53.260;6.394;2023-02-28T06:33:40;3.70;99.90
51922;DHT22;37948;53.260;6.394;2023-02-28T06:36:07;3.70;99.90
51922;DHT22;37948;53.260;6.394;2023-02-28T06:38:33;3.70;99.90
51922;DHT22;37948;53.260;6.394;2023-02-28T06:41:00;3.60;99.90
51922;DHT22;37948;53.260;6.394;2023-02-28T06:43:29;3.70;99.90
51922;DHT22;37948;53.260;6.394;2023-02-28T06:45:56;3.60;99.90
51922;DHT22;37948;53.260;6.394;2023-02-28T06:48:22;3.70;99.90
51922;DHT22;37948;53.260;6.394;2023-02-28T06:50:47;3.70;99.90
51922;DHT22;37948;53.260;6.394;2023-02-28T06:53:13;3.70;99.90
51922;DHT22;37948;53.260;6.394;2023-02-28T06:55:39;3.70;99.90
51922;DHT22;37948;53.260;6.394;2023-02-28T06:58:05;3.70;99.90
51922;DHT22;37948;53.260;6.394;2023-02-28T07:00:43;3.70;99.90
51922;DHT22;37948;53.260;6.394;2023-02-28T07:03:09;3.70;99.90
51922;DHT22;37948;53.260;6.394;2023-02-28T07:05:36;3.70;99.90
51922;DHT22;37948;53.260;6.394;2023-02-28T07:08:03;3.70;99.90
51922;DHT22;37948;53.260;6.394;2023-02-28T07:10:30;3.70;99.90
51922;DHT22;37948;53.260;6.394;2023-02-28T07:12:55;3.70;99.90
51922;DHT22;37948;53.260;6.394;2023-02-28T07:15:21;3.60;99.90
51922;DHT22;37948;53.260;6.394;2023-02-28T07:17:47;3.60;99.90
51922;DHT22;37948;53.260;6.394;2023-02-28T07:20:13;3.60;99.90
51922;DHT22;37948;53.260;6.394;2023-02-28T07:22:38;3.60;99.90
51922;DHT22;37948;53.260;6.394;2023-02-28T07:25:05;3.60;99.90
51922;DHT22;37948;53.260;6.394;2023-02-28T07:27:30;3.70;99.90
51922;DHT22;37948;53.260;6.394;2023-02-28T07:29:56;3.60;99.90
51922;DHT22;37948;53.260;6.394;2023-02-28T07:32:22;3.60;99.90
51922;DHT22;37948;53.260;6.394;2023-02-28T07:34:48;3.60;99.90
51922;DHT22;37948;53.260;6.394;2023-02-28T07:37:14;3.50;99.90
51922;DHT22;37948;53.260;6.394;2023-02-28T07:39:40;3.50;99.90
51922;DHT22;37948;53.260;6.394;2023-02-28T07:42:09;3.50;99.90
51922;DHT22;37948;53.260;6.394;2023-02-28T07:44:37;3.50;99.90
51922;DHT22;37948;53.260;6.394;2023-02-28T07:47:07;3.50;99.90
51922;DHT22;37948;53.260;6.394;2023-02-28T07:49:34;3.50;99.90
51922;DHT22;37948;53.260;6.394;2023-02-28T07:51:59;3.50;99.90
51922;DHT22;37948;53.260;6.394;2023-02-28T07:54:25;3.50;99.90
51922;DHT22;37948;53.260;6.394;2023-02-28T07:56:50;3.50;99.90
51922;DHT22;37948;53.260;6.394;2023-02-28T07:59:16;3.50;99.90
51922;DHT22;37948;53.260;6.394;2023-02-28T08:01:42;3.50;99.90
51922;DHT22;37948;53.260;6.394;2023-02-28T08:04:09;3.50;99.90
51922;DHT22;37948;53.260;6.394;2023-02-28T08:06:35;3.50;99.90
51922;DHT22;37948;53.260;6.394;2023-02-28T08:09:01;3.60;99.90
51922;DHT22;37948;53.260;6.394;2023-02-28T08:11:26;3.60;99.90
51922;DHT22;37948;53.260;6.394;2023-02-28T08:13:52;3.60;99.90
51922;DHT22;37948;53.260;6.394;2023-02-28T08:16:17;3.60;99.90
51922;DHT22;37948;53.260;6.394;2023-02-28T08:18:48;3.60;99.90
51922;DHT22;37948;53.260;6.394;2023-02-28T08:21:14;3.60;99.90
51922;DHT22;37948;53.260;6.394;2023-02-28T08:23:40;3.50;99.90
51922;DHT22;37948;53.260;6.394;2023-02-28T08:26:06;3.50;99.90
51922;DHT22;37948;53.260;6.394;2023-02-28T08:28:32;3.50;99.90
51922;DHT22;37948;53.260;6.394;2023-02-28T08:30:58;3.50;99.90
51922;DHT22;37948;53.260;6.394;2023-02-28T08:33:24;3.50;99.90
51922;DHT22;37948;53.260;6.394;2023-02-28T08:35:54;3.50;99.90
51922;DHT22;37948;53.260;6.394;2023-02-28T08:38:20;3.50;99.90
51922;DHT22;37948;53.260;6.394;2023-02-28T08:40:45;3.60;99.90
51922;DHT22;37948;53.260;6.394;2023-02-28T08:43:11;3.60;99.90
51922;DHT22;37948;53.260;6.394;2023-02-28T08:45:37;3.60;99.90
51922;DHT22;37948;53.260;6.394;2023-02-28T08:48:03;3.70;99.90
51922;DHT22;37948;53.260;6.394;2023-02-28T08:50:28;3.70;99.90
51922;DHT22;37948;53.260;6.394;2023-02-28T08:52:54;3.70;99.90
51922;DHT22;37948;53.260;6.394;2023-02-28T08:55:19;3.70;99.90
51922;DHT22;37948;53.260;6.394;2023-02-28T08:57:45;3.80;99.90
51922;DHT22;37948;53.260;6.394;2023-02-28T09:00:11;3.80;99.90
51922;DHT22;37948;53.260;6.394;2023-02-28T09:02:39;3.80;99.90
51922;DHT22;37948;53.260;6.394;2023-02-28T09:05:05;3.90;99.90
51922;DHT22;37948;53.260;6.394;2023-02-28T09:07:31;3.90;99.90
51922;DHT22;37948;53.260;6.394;2023-02-28T09:09:56;4.00;99.90
51922;DHT22;37948;53.260;6.394;2023-02-28T09:12:27;4.00;99.90
51922;DHT22;37948;53.260;6.394;2023-02-28T09:14:57;4.10;99.90
51922;DHT22;37948;53.260;6.394;2023-02-28T09:17:22;4.20;99.90
51922;DHT22;37948;53.260;6.394;2023-02-28T09:19:48;4.20;99.90
51922;DHT22;37948;53.260;6.394;2023-02-28T09:22:14;4.30;99.90
51922;DHT22;37948;53.260;6.394;2023-02-28T09:24:41;4.30;99.90
51922;DHT22;37948;53.260;6.394;2023-02-28T09:27:06;4.40;99.90
51922;DHT22;37948;53.260;6.394;2023-02-28T09:29:34;4.40;99.90
51922;DHT22;37948;53.260;6.394;2023-02-28T09:32:00;4.50;99.90
51922;DHT22;37948;53.260;6.394;2023-02-28T09:34:27;4.40;99.90
51922;DHT22;37948;53.260;6.394;2023-02-28T09:36:53;4.50;99.90
51922;DHT22;37948;53.260;6.394;2023-02-28T09:39:23;4.60;99.90
51922;DHT22;37948;53.260;6.394;2023-02-28T09:41:54;4.60;99.90
51922;DHT22;37948;53.260;6.394;2023-02-28T09:44:47;4.70;99.90
51922;DHT22;37948;53.260;6.394;2023-02-28T09:47:27;4.80;99.90
51922;DHT22;37948;53.260;6.394;2023-02-28T09:49:58;4.80;99.90
51922;DHT22;37948;53.260;6.394;2023-02-28T09:52:30;4.90;99.90
51922;DHT22;37948;53.260;6.394;2023-02-28T09:55:20;4.80;99.90
51922;DHT22;37948;53.260;6.394;2023-02-28T09:57:48;4.90;99.90
51922;DHT22;37948;53.260;6.394;2023-02-28T10:05:50;5.20;99.90
51922;DHT22;37948;53.260;6.394;2023-02-28T10:10:55;5.30;99.90
51922;DHT22;37948;53.260;6.394;2023-02-28T10:13:36;5.40;99.90
51922;DHT22;37948;53.260;6.394;2023-02-28T10:16:07;5.50;99.90
51922;DHT22;37948;53.260;6.394;2023-02-28T10:21:21;5.70;99.90
51922;DHT22;37948;53.260;6.394;2023-02-28T10:23:48;5.80;99.90
51922;DHT22;37948;53.260;6.394;2023-02-28T10:26:17;5.80;99.90
51922;DHT22;37948;53.260;6.394;2023-02-28T10:28:44;5.90;99.90
51922;DHT22;37948;53.260;6.394;2023-02-28T10:31:19;5.90;99.90
51922;DHT22;37948;53.260;6.394;2023-02-28T10:33:45;6.00;99.90
51922;DHT22;37948;53.260;6.394;2023-02-28T10:36:16;5.80;99.90
51922;DHT22;37948;53.260;6.394;2023-02-28T10:38:44;5.80;99.90
51922;DHT22;37948;53.260;6.394;2023-02-28T10:41:12;5.90;99.90
51922;DHT22;37948;53.260;6.394;2023-02-28T10:43:40;5.90;99.90
51922;DHT22;37948;53.260;6.394;2023-02-28T10:51:08;5.90;99.90
51922;DHT22;37948;53.260;6.394;2023-02-28T10:53:37;6.00;99.90
51922;DHT22;37948;53.260;6.394;2023-02-28T10:56:14;6.10;99.90
51922;DHT22;37948;53.260;6.394;2023-02-28T11:01:41;6.30;99.90
51922;DHT22;37948;53.260;6.394;2023-02-28T11:09:30;6.20;99.90
51922;DHT22;37948;53.260;6.394;2023-02-28T11:11:58;6.20;99.90
51922;DHT22;37948;53.260;6.394;2023-02-28T11:14:30;6.20;99.90
51922;DHT22;37948;53.260;6.394;2023-02-28T11:17:02;6.30;99.90
51922;DHT22;37948;53.260;6.394;2023-02-28T11:19:46;6.50;99.90
51922;DHT22;37948;53.260;6.394;2023-02-28T11:22:24;6.60;99.90
51922;DHT22;37948;53.260;6.394;2023-02-28T11:24:55;6.70;99.90
51922;DHT22;37948;53.260;6.394;2023-02-28T11:29:55;7.00;99.90
51922;DHT22;37948;53.260;6.394;2023-02-28T11:32:25;7.10;99.90
51922;DHT22;37948;53.260;6.394;2023-02-28T11:37:35;7.00;99.90
51922;DHT22;37948;53.260;6.394;2023-02-28T11:40:02;7.10;99.90
51922;DHT22;37948;53.260;6.394;2023-02-28T11:43:20;7.20;99.90
51922;DHT22;37948;53.260;6.394;2023-02-28T11:48:32;7.40;99.90
51922;DHT22;37948;53.260;6.394;2023-02-28T11:51:28;7.50;99.90
51922;DHT22;37948;53.260;6.394;2023-02-28T11:54:05;7.50;99.90
51922;DHT22;37948;53.260;6.394;2023-02-28T12:07:41;7.70;99.90
51922;DHT22;37948;53.260;6.394;2023-02-28T12:26:44;7.70;99.90
51922;DHT22;37948;53.260;6.394;2023-02-28T12:29:17;7.60;99.90
51922;DHT22;37948;53.260;6.394;2023-02-28T12:31:53;7.50;99.90
51922;DHT22;37948;53.260;6.394;2023-02-28T12:34:24;7.50;99.90
51922;DHT22;37948;53.260;6.394;2023-02-28T12:36:52;7.60;99.90
51922;DHT22;37948;53.260;6.394;2023-02-28T12:39:25;7.50;99.90
51922;DHT22;37948;53.260;6.394;2023-02-28T12:41:56;7.50;99.90
51922;DHT22;37948;53.260;6.394;2023-02-28T12:44:35;7.50;99.90
51922;DHT22;37948;53.260;6.394;2023-02-28T12:47:05;7.50;99.90
51922;DHT22;37948;53.260;6.394;2023-02-28T12:49:43;7.40;99.90
51922;DHT22;37948;53.260;6.394;2023-02-28T12:52:13;7.40;99.90
51922;DHT22;37948;53.260;6.394;2023-02-28T12:55:00;7.40;99.90
51922;DHT22;37948;53.260;6.394;2023-02-28T12:57:39;7.30;99.90
51922;DHT22;37948;53.260;6.394;2023-02-28T13:00:11;7.20;99.90
51922;DHT22;37948;53.260;6.394;2023-02-28T13:02:44;7.10;99.90
51922;DHT22;37948;53.260;6.394;2023-02-28T13:05:37;7.10;99.90
51922;DHT22;37948;53.260;6.394;2023-02-28T13:10:48;6.80;99.90
51922;DHT22;37948;53.260;6.394;2023-02-28T13:13:21;6.80;99.90
51922;DHT22;37948;53.260;6.394;2023-02-28T13:16:03;6.70;99.90
51922;DHT22;37948;53.260;6.394;2023-02-28T13:21:00;7.00;99.90
51922;DHT22;37948;53.260;6.394;2023-02-28T13:23:56;7.10;99.90
51922;DHT22;37948;53.260;6.394;2023-02-28T13:29:21;7.40;99.90
51922;DHT22;37948;53.260;6.394;2023-02-28T13:34:40;7.60;99.90
51922;DHT22;37948;53.260;6.394;2023-02-28T13:47:40;7.60;99.90
51922;DHT22;37948;53.260;6.394;2023-02-28T14:11:45;7.30;99.90
51922;DHT22;37948;53.260;6.394;2023-02-28T14:17:07;7.30;99.90
51922;DHT22;37948;53.260;6.394;2023-02-28T14:19:37;7.30;99.90
51922;DHT22;37948;53.260;6.394;2023-02-28T14:27:53;7.60;99.90
51922;DHT22;37948;53.260;6.394;2023-02-28T14:30:51;7.80;99.90
51922;DHT22;37948;53.260;6.394;2023-02-28T14:36:18;8.00;99.90
51922;DHT22;37948;53.260;6.394;2023-02-28T14:38:56;8.10;99.90
51922;DHT22;37948;53.260;6.394;2023-02-28T14:41:35;8.20;99.90
51922;DHT22;37948;53.260;6.394;2023-02-28T14:44:12;8.10;99.90
51922;DHT22;37948;53.260;6.394;2023-02-28T14:46:40;8.20;99.90
51922;DHT22;37948;53.260;6.394;2023-02-28T14:49:12;8.20;99.90
51922;DHT22;37948;53.260;6.394;2023-02-28T14:51:38;8.20;99.90
51922;DHT22;37948;53.260;6.394;2023-02-28T14:54:04;8.20;99.90
51922;DHT22;37948;53.260;6.394;2023-02-28T14:56:35;8.10;99.90
51922;DHT22;37948;53.260;6.394;2023-02-28T14:59:02;8.00;99.90
51922;DHT22;37948;53.260;6.394;2023-02-28T15:01:28;7.90;99.90
51922;DHT22;37948;53.260;6.394;2023-02-28T15:04:03;7.80;99.90
51922;DHT22;37948;53.260;6.394;2023-02-28T15:06:29;7.80;99.90
51922;DHT22;37948;53.260;6.394;2023-02-28T15:09:17;7.80;99.90
51922;DHT22;37948;53.260;6.394;2023-02-28T15:11:47;7.90;99.90
51922;DHT22;37948;53.260;6.394;2023-02-28T15:14:18;7.90;99.90
51922;DHT22;37948;53.260;6.394;2023-02-28T15:16:46;7.90;99.90
51922;DHT22;37948;53.260;6.394;2023-02-28T15:19:24;7.90;99.90
51922;DHT22;37948;53.260;6.394;2023-02-28T15:24:52;8.00;99.90
51922;DHT22;37948;53.260;6.394;2023-02-28T15:27:22;8.00;99.90
51922;DHT22;37948;53.260;6.394;2023-02-28T15:29:53;8.00;99.90
51922;DHT22;37948;53.260;6.394;2023-02-28T15:32:25;7.90;99.90
51922;DHT22;37948;53.260;6.394;2023-02-28T15:34:51;7.90;99.90
51922;DHT22;37948;53.260;6.394;2023-02-28T15:37:33;7.90;99.90
51922;DHT22;37948;53.260;6.394;2023-02-28T15:42:40;7.80;99.90
51922;DHT22;37948;53.260;6.394;2023-02-28T15:45:33;7.80;99.90
51922;DHT22;37948;53.260;6.394;2023-02-28T15:48:03;7.80;99.90
51922;DHT22;37948;53.260;6.394;2023-02-28T15:50:29;7.80;99.90
51922;DHT22;37948;53.260;6.394;2023-02-28T15:52:55;7.70;99.90
51922;DHT22;37948;53.260;6.394;2023-02-28T15:55:23;7.70;99.90
51922;DHT22;37948;53.260;6.394;2023-02-28T15:57:52;7.70;99.90
51922;DHT22;37948;53.260;6.394;2023-02-28T16:00:23;7.60;99.90
51922;DHT22;37948;53.260;6.394;2023-02-28T16:02:50;7.60;99.90
51922;DHT22;37948;53.260;6.394;2023-02-28T16:05:30;7.50;99.90
51922;DHT22;37948;53.260;6.394;2023-02-28T16:07:59;7.50;99.90
51922;DHT22;37948;53.260;6.394;2023-02-28T16:10:27;7.50;99.90
51922;DHT22;37948;53.260;6.394;2023-02-28T16:12:56;7.40;99.90
51922;DHT22;37948;53.260;6.394;2023-02-28T16:15:28;7.40;99.90
51922;DHT22;37948;53.260;6.394;2023-02-28T16:17:55;7.40;99.90
51922;DHT22;37948;53.260;6.394;2023-02-28T16:20:27;7.30;99.90
51922;DHT22;37948;53.260;6.394;2023-02-28T16:22:53;7.30;99.90
51922;DHT22;37948;53.260;6.394;2023-02-28T16:25:25;7.20;99.90
51922;DHT22;37948;53.260;6.394;2023-02-28T16:27:52;7.20;99.90
51922;DHT22;37948;53.260;6.394;2023-02-28T16:30:27;7.10;99.90
51922;DHT22;37948;53.260;6.394;2023-02-28T16:32:56;7.00;99.90
51922;DHT22;37948;53.260;6.394;2023-02-28T16:35:22;7.00;99.90
51922;DHT22;37948;53.260;6.394;2023-02-28T16:37:50;6.90;99.90
51922;DHT22;37948;53.260;6.394;2023-02-28T16:40:18;6.80;99.90
51922;DHT22;37948;53.260;6.394;2023-02-28T16:42:47;6.80;99.90
51922;DHT22;37948;53.260;6.394;2023-02-28T16:45:26;6.70;99.90
51922;DHT22;37948;53.260;6.394;2023-02-28T16:47:52;6.60;99.90
51922;DHT22;37948;53.260;6.394;2023-02-28T16:50:20;6.50;99.90
51922;DHT22;37948;53.260;6.394;2023-02-28T16:52:47;6.40;99.90
51922;DHT22;37948;53.260;6.394;2023-02-28T16:55:15;6.40;99.90
51922;DHT22;37948;53.260;6.394;2023-02-28T16:57:41;6.30;99.90
51922;DHT22;37948;53.260;6.394;2023-02-28T17:00:11;6.20;99.90
51922;DHT22;37948;53.260;6.394;2023-02-28T17:02:37;6.20;99.90
51922;DHT22;37948;53.260;6.394;2023-02-28T17:05:03;6.10;99.90
51922;DHT22;37948;53.260;6.394;2023-02-28T17:07:32;6.10;99.90
51922;DHT22;37948;53.260;6.394;2023-02-28T17:09:58;6.10;99.90
51922;DHT22;37948;53.260;6.394;2023-02-28T17:12:24;6.00;99.90
51922;DHT22;37948;53.260;6.394;2023-02-28T17:14:50;6.00;99.90
51922;DHT22;37948;53.260;6.394;2023-02-28T17:17:18;5.90;99.90
51922;DHT22;37948;53.260;6.394;2023-02-28T17:19:45;5.80;99.90
51922;DHT22;37948;53.260;6.394;2023-02-28T17:22:11;5.70;99.90
51922;DHT22;37948;53.260;6.394;2023-02-28T17:24:36;5.70;99.90
51922;DHT22;37948;53.260;6.394;2023-02-28T17:27:02;5.60;99.90
51922;DHT22;37948;53.260;6.394;2023-02-28T17:29:28;5.60;99.90
51922;DHT22;37948;53.260;6.394;2023-02-28T17:31:54;5.50;99.90
51922;DHT22;37948;53.260;6.394;2023-02-28T17:34:20;5.50;99.90
51922;DHT22;37948;53.260;6.394;2023-02-28T17:36:48;5.50;99.90
51922;DHT22;37948;53.260;6.394;2023-02-28T17:39:16;5.50;99.90
51922;DHT22;37948;53.260;6.394;2023-02-28T17:41:46;5.40;99.90
51922;DHT22;37948;53.260;6.394;2023-02-28T17:44:13;5.40;99.90
51922;DHT22;37948;53.260;6.394;2023-02-28T17:46:39;5.30;99.90
51922;DHT22;37948;53.260;6.394;2023-02-28T17:49:05;5.30;99.90
51922;DHT22;37948;53.260;6.394;2023-02-28T17:51:31;5.30;99.90
51922;DHT22;37948;53.260;6.394;2023-02-28T17:53:56;5.20;99.90
51922;DHT22;37948;53.260;6.394;2023-02-28T17:56:24;5.20;99.90
51922;DHT22;37948;53.260;6.394;2023-02-28T17:58:51;5.20;99.90
51922;DHT22;37948;53.260;6.394;2023-02-28T18:01:17;5.20;99.90
51922;DHT22;37948;53.260;6.394;2023-02-28T18:03:43;5.20;99.90
51922;DHT22;37948;53.260;6.394;2023-02-28T18:06:18;5.20;99.90
51922;DHT22;37948;53.260;6.394;2023-02-28T18:08:44;5.10;99.90
51922;DHT22;37948;53.260;6.394;2023-02-28T18:11:10;5.10;99.90
51922;DHT22;37948;53.260;6.394;2023-02-28T18:13:46;5.00;99.90
51922;DHT22;37948;53.260;6.394;2023-02-28T18:16:13;5.00;99.90
51922;DHT22;37948;53.260;6.394;2023-02-28T18:18:40;5.00;99.90
51922;DHT22;37948;53.260;6.394;2023-02-28T18:21:07;4.90;99.90
51922;DHT22;37948;53.260;6.394;2023-02-28T18:23:34;4.90;99.90
51922;DHT22;37948;53.260;6.394;2023-02-28T18:26:00;4.90;99.90
51922;DHT22;37948;53.260;6.394;2023-02-28T18:28:25;4.80;99.90
51922;DHT22;37948;53.260;6.394;2023-02-28T18:30:51;4.80;99.90
51922;DHT22;37948;53.260;6.394;2023-02-28T18:33:17;4.80;99.90
51922;DHT22;37948;53.260;6.394;2023-02-28T18:35:42;4.80;99.90
51922;DHT22;37948;53.260;6.394;2023-02-28T18:38:17;4.80;99.90
51922;DHT22;37948;53.260;6.394;2023-02-28T18:40:55;4.70;99.90
51922;DHT22;37948;53.260;6.394;2023-02-28T18:43:21;4.70;99.90